Time;durP1;ratioP1;P1;durP2;ratioP2;P2;SDS_P1;SDS_P2;PMS_P1;PMS_P2;Temp;Humidity;BMP_temperature;BMP_pressure;BME280_temperature;BME280_humidity;BME280_pressure;Samples;Min_cycle;Max_cycle;Signal;HPM_P1;HPM_P2
2021/04/21 00:01:38;;;;;;;;;;;;;;;7.19;77.99;99380.78;5117146;28;20023;-70
2021/04/21 00:04:06;;;;;;;;;;;;;;;7.14;77.49;99382.44;5116869;28;20381;-71
2021/04/21 00:06:34;;;;;;;;;;;;;;;7.01;77.49;99380.63;5116681;28;20026;-70
2021/04/21 00:09:04;;;;;;;;;;;;;;;7.01;77.71;99385.69;5116690;28;19923;-70
2021/04/21 00:11:33;;;;;;;;;;;;;;;6.98;78.33;99376.38;5116592;28;20026;-70
2021/04/21 00:14:01;;;;;;;;;;;;;;;6.95;77.99;99376.38;5117516;28;19923;-70
2021/04/21 00:16:29;;;;;;;;;;;;;;;6.94;77.99;99373.81;5116570;28;20339;-70
2021/04/21 00:18:58;;;;;;;;;;;;;;;6.91;78.37;99371.25;5116579;28;19924;-70
2021/04/21 00:21:25;;;;;;;;;;;;;;;6.93;77.84;99377.19;5116434;28;19953;-70
2021/04/21 00:23:53;;;;;;;;;;;;;;;6.93;77.84;99374.66;5116445;28;19931;-70
2021/04/21 00:26:23;;;;;;;;;;;;;;;6.90;77.78;99369.56;5116571;28;19923;-70
2021/04/21 00:28:52;;;;;;;;;;;;;;;6.89;77.97;99376.31;5116377;28;20392;-70
2021/04/21 00:31:23;;;;;;;;;;;;;;;6.87;78.18;99366.97;5116313;28;19959;-70
2021/04/21 00:33:53;;;;;;;;;;;;;;;6.89;77.98;99358.56;5116326;28;19924;-70
2021/04/21 00:36:22;;;;;;;;;;;;;;;6.84;78.37;99356.84;5116554;28;19930;-70
2021/04/21 00:38:52;;;;;;;;;;;;;;;6.78;78.50;99352.53;5116128;28;20026;-70
2021/04/21 00:41:27;;;;;;;;;;;;;;;6.79;78.47;99348.34;5097959;28;19923;-70
2021/04/21 00:43:57;;;;;;;;;;;;;;;6.80;79.03;99340.72;5116357;28;20394;-70
2021/04/21 00:46:31;;;;;;;;;;;;;;;6.82;78.60;99348.34;5116322;28;19923;-70
2021/04/21 00:49:04;;;;;;;;;;;;;;;6.83;78.94;99347.50;5115769;28;19924;-70
2021/04/21 00:51:37;;;;;;;;;;;;;;;6.82;78.83;99350.88;5116479;28;19975;-70
2021/04/21 00:54:10;;;;;;;;;;;;;;;6.84;79.02;99344.97;5116143;28;19963;-70
2021/04/21 00:56:43;;;;;;;;;;;;;;;6.88;79.09;99353.47;5097779;28;19924;-70
2021/04/21 00:59:13;;;;;;;;;;;;;;;6.89;78.99;99355.16;5115701;28;19924;-70
2021/04/21 01:01:42;;;;;;;;;;;;;;;6.87;78.77;99346.69;5115757;28;19928;-70
2021/04/21 01:04:12;;;;;;;;;;;;;;;6.86;79.00;99355.16;5117426;28;19927;-70
2021/04/21 01:06:47;;;;;;;;;;;;;;;6.89;78.89;99360.22;5114360;28;19931;-70
2021/04/21 01:09:18;;;;;;;;;;;;;;;6.89;78.58;99356.00;5114643;28;20005;-70
2021/04/21 01:11:48;;;;;;;;;;;;;;;6.87;78.56;99360.22;5080987;28;19970;-70
2021/04/21 01:14:23;;;;;;;;;;;;;;;6.84;79.01;99361.91;5115804;28;19951;-70
2021/04/21 01:16:57;;;;;;;;;;;;;;;6.82;78.92;99361.00;5097297;28;19931;-70
2021/04/21 01:19:30;;;;;;;;;;;;;;;6.81;78.86;99354.25;5115713;28;19927;-70
2021/04/21 01:22:02;;;;;;;;;;;;;;;6.78;78.77;99357.63;5114184;28;19930;-70
2021/04/21 01:24:35;;;;;;;;;;;;;;;6.72;78.31;99365.16;5115612;28;19998;-70
2021/04/21 01:27:06;;;;;;;;;;;;;;;6.61;78.51;99361.69;5115133;28;19924;-70
2021/04/21 01:29:37;;;;;;;;;;;;;;;6.60;78.48;99354.88;5115463;28;19965;-70
2021/04/21 01:32:09;;;;;;;;;;;;;;;6.57;78.58;99353.22;5115179;28;20343;-70
2021/04/21 01:34:38;;;;;;;;;;;;;;;6.58;78.42;99354.88;5115067;28;19934;-70
2021/04/21 01:37:07;;;;;;;;;;;;;;;6.50;78.51;99351.41;5115780;28;20056;-70
2021/04/21 01:39:39;;;;;;;;;;;;;;;6.46;78.64;99359.84;5114961;28;19924;-70
2021/04/21 01:42:07;;;;;;;;;;;;;;;6.45;78.32;99348.00;5115007;28;19977;-70
2021/04/21 01:44:40;;;;;;;;;;;;;;;6.48;78.46;99357.31;5114924;28;19963;-70
2021/04/21 01:47:11;;;;;;;;;;;;;;;6.50;78.68;99353.94;5114846;28;19923;-70
2021/04/21 01:49:50;;;;;;;;;;;;;;;6.55;78.60;99369.25;5114803;28;20266;-70
2021/04/21 01:52:32;;;;;;;;;;;;;;;6.57;78.34;99362.50;5115083;28;20440;-70
2021/04/21 01:55:03;;;;;;;;;;;;;;;6.54;78.29;99365.84;5112184;28;19930;-70
2021/04/21 01:57:34;;;;;;;;;;;;;;;6.49;78.35;99364.94;5114730;28;19946;-70
2021/04/21 02:00:04;;;;;;;;;;;;;;;6.42;77.73;99364.84;5114600;28;19951;-70
2021/04/21 02:02:43;;;;;;;;;;;;;;;6.32;77.70;99363.91;5114072;28;19924;-70
2021/04/21 02:05:16;;;;;;;;;;;;;;;6.18;77.53;99367.97;5113773;28;19924;-70
2021/04/21 02:07:53;;;;;;;;;;;;;;;5.99;77.42;99368.59;5114618;28;19930;-70
2021/04/21 02:10:31;;;;;;;;;;;;;;;5.85;77.37;99367.56;5114582;28;19924;-70
2021/04/21 02:13:05;;;;;;;;;;;;;;;5.78;77.50;99368.28;5114568;28;19924;-70
2021/04/21 02:15:43;;;;;;;;;;;;;;;5.68;77.67;99374.91;5114566;28;19928;-70
2021/04/21 02:18:16;;;;;;;;;;;;;;;5.65;77.91;99384.13;5114435;28;19924;-70
2021/04/21 02:20:45;;;;;;;;;;;;;;;5.56;78.07;99378.94;5114509;28;19959;-70
2021/04/21 02:23:21;;;;;;;;;;;;;;;5.53;78.07;99383.94;5114428;28;19924;-70
2021/04/21 02:25:58;;;;;;;;;;;;;;;5.46;78.14;99382.16;5114713;28;19982;-70
2021/04/21 02:28:28;;;;;;;;;;;;;;;5.37;77.92;99378.66;5114356;28;19947;-70
2021/04/21 02:31:03;;;;;;;;;;;;;;;5.31;78.38;99383.66;5114414;28;19931;-70
2021/04/21 02:33:38;;;;;;;;;;;;;;;5.27;78.08;99389.50;5114622;28;19923;-70
2021/04/21 02:36:09;;;;;;;;;;;;;;;5.26;78.05;99384.38;5114895;28;20045;-70
2021/04/21 02:38:39;;;;;;;;;;;;;;;5.22;78.10;99393.63;5114270;28;20262;-70
2021/04/21 02:41:07;;;;;;;;;;;;;;;5.20;77.97;99392.75;5114535;28;19927;-70
2021/04/21 02:43:46;;;;;;;;;;;;;;;5.22;78.15;99386.03;5115078;28;19985;-70
2021/04/21 02:46:17;;;;;;;;;;;;;;;5.19;77.95;99392.72;5114232;28;19930;-70
2021/04/21 02:48:50;;;;;;;;;;;;;;;5.02;77.88;99387.38;5096261;28;20361;-70
2021/04/21 02:51:24;;;;;;;;;;;;;;;4.93;77.74;99396.50;5114494;28;20018;-70
2021/04/21 02:53:56;;;;;;;;;;;;;;;4.80;78.18;99390.38;5114225;28;19924;-70
2021/04/21 02:56:29;;;;;;;;;;;;;;;4.81;77.92;99383.66;5114145;28;20019;-70
2021/04/21 02:59:02;;;;;;;;;;;;;;;4.81;77.89;99388.69;5113918;28;19928;-70
2021/04/21 03:01:38;;;;;;;;;;;;;;;4.85;78.23;99386.25;5114303;28;19950;-70
2021/04/21 03:04:10;;;;;;;;;;;;;;;4.89;78.22;99382.97;5112930;28;19924;-70
2021/04/21 03:06:41;;;;;;;;;;;;;;;4.89;78.19;99372.00;5114003;28;19924;-70
2021/04/21 03:09:10;;;;;;;;;;;;;;;4.91;78.35;99381.31;5114069;28;19931;-70
2021/04/21 03:11:39;;;;;;;;;;;;;;;4.89;78.68;99382.13;5113975;28;19931;-70
2021/04/21 03:14:09;;;;;;;;;;;;;;;4.93;78.35;99382.19;5117416;28;19927;-70
2021/04/21 03:16:39;;;;;;;;;;;;;;;4.92;78.46;99384.69;5118028;28;19960;-70
2021/04/21 03:19:09;;;;;;;;;;;;;;;4.87;78.64;99383.78;5117993;28;19974;-70
2021/04/21 03:21:37;;;;;;;;;;;;;;;4.90;78.30;99389.72;5117604;28;20026;-70
2021/04/21 03:24:09;;;;;;;;;;;;;;;4.91;78.39;99396.47;5117495;28;19969;-70
2021/04/21 03:26:38;;;;;;;;;;;;;;;4.90;78.70;99399.81;5117484;28;19928;-70
2021/04/21 03:29:07;;;;;;;;;;;;;;;4.85;78.73;99406.47;5117516;28;19923;-70
2021/04/21 03:31:36;;;;;;;;;;;;;;;4.91;78.52;99401.53;5117477;28;19923;-70
2021/04/21 03:34:07;;;;;;;;;;;;;;;4.92;78.60;99403.22;5117332;28;20399;-70
2021/04/21 03:36:38;;;;;;;;;;;;;;;4.86;78.67;99407.34;5117372;28;19931;-70
2021/04/21 03:39:07;;;;;;;;;;;;;;;4.70;78.91;99406.22;5117338;28;20270;-70
2021/04/21 03:41:36;;;;;;;;;;;;;;;4.61;78.27;99406.03;5117195;28;20397;-70
2021/04/21 03:44:07;;;;;;;;;;;;;;;4.57;78.46;99409.34;5117471;28;19924;-70
2021/04/21 03:46:35;;;;;;;;;;;;;;;4.47;78.52;99408.31;5117104;28;19951;-70
2021/04/21 03:49:03;;;;;;;;;;;;;;;4.43;78.76;99411.63;5117324;28;20351;-70
2021/04/21 03:51:31;;;;;;;;;;;;;;;4.50;78.84;99402.47;5117071;28;19931;-70
2021/04/21 03:54:01;;;;;;;;;;;;;;;4.46;79.01;99405.78;5117019;28;19977;-70
2021/04/21 03:56:32;;;;;;;;;;;;;;;4.45;79.35;99404.91;5117129;28;20338;-70
2021/04/21 03:59:00;;;;;;;;;;;;;;;4.42;78.81;99404.84;5116680;28;19923;-70
2021/04/21 04:01:40;;;;;;;;;;;;;;;4.39;78.55;99403.94;5116947;28;19955;-70
2021/04/21 04:04:09;;;;;;;;;;;;;;;4.34;79.39;99406.41;5117085;28;20401;-70
2021/04/21 04:06:39;;;;;;;;;;;;;;;4.39;78.85;99411.53;5116607;28;20016;-70
2021/04/21 04:09:09;;;;;;;;;;;;;;;4.48;78.84;99406.66;5116769;28;19928;-70
2021/04/21 04:11:39;;;;;;;;;;;;;;;4.57;79.17;99414.38;5116754;28;19930;-70
2021/04/21 04:14:15;;;;;;;;;;;;;;;4.72;79.53;99409.63;5116646;28;20385;-70
2021/04/21 04:16:44;;;;;;;;;;;;;;;4.86;79.34;99415.78;5116513;28;19924;-70
2021/04/21 04:19:13;;;;;;;;;;;;;;;5.07;79.22;99418.66;5116486;28;19973;-70
2021/04/21 04:21:42;;;;;;;;;;;;;;;5.25;79.38;99413.91;5116513;28;19924;-70
2021/04/21 04:24:14;;;;;;;;;;;;;;;5.38;79.24;99420.88;5114986;28;19970;-70
2021/04/21 04:26:44;;;;;;;;;;;;;;;5.46;78.76;99428.56;5115622;28;19931;-70
2021/04/21 04:29:16;;;;;;;;;;;;;;;5.49;78.86;99436.22;5116329;28;19924;-70
2021/04/21 04:31:43;;;;;;;;;;;;;;;5.51;78.88;99416.00;5116267;28;20270;-70
2021/04/21 04:34:14;;;;;;;;;;;;;;;5.56;78.80;99421.97;5116253;28;19927;-70
2021/04/21 04:36:45;;;;;;;;;;;;;;;5.58;78.71;99428.75;5116076;28;20345;-70
2021/04/21 04:39:15;;;;;;;;;;;;;;;5.62;78.33;99429.63;5116492;28;20383;-70
2021/04/21 04:41:42;;;;;;;;;;;;;;;5.66;78.26;99428.88;5115991;28;19951;-70
2021/04/21 04:44:10;;;;;;;;;;;;;;;5.73;78.26;99428.13;5116057;28;20293;-70
2021/04/21 04:46:42;;;;;;;;;;;;;;;5.81;78.45;99429.94;5115879;28;19969;-70
2021/04/21 04:49:13;;;;;;;;;;;;;;;5.90;78.12;99429.25;5115966;28;20018;-70
2021/04/21 04:51:44;;;;;;;;;;;;;;;5.99;78.03;99436.97;5116154;28;19930;-70
2021/04/21 04:54:13;;;;;;;;;;;;;;;6.09;77.83;99443.88;5116211;28;19927;-70
2021/04/21 04:56:44;;;;;;;;;;;;;;;6.15;77.77;99443.06;5115716;28;19963;-70
2021/04/21 04:59:12;;;;;;;;;;;;;;;6.21;77.54;99444.03;5115841;28;19971;-70
2021/04/21 05:01:58;;;;;;;;;;;;;;;6.29;77.74;99437.34;5115578;28;19953;-70
2021/04/21 05:04:32;;;;;;;;;;;;;;;6.40;77.41;99438.34;5115646;28;20285;-70
2021/04/21 05:07:04;;;;;;;;;;;;;;;6.51;77.57;99443.53;5115793;28;20330;-70
2021/04/21 05:09:33;;;;;;;;;;;;;;;6.62;77.35;99445.34;5115930;28;19976;-70
2021/04/21 05:12:05;;;;;;;;;;;;;;;6.67;77.29;99450.50;5115516;28;20018;-70
2021/04/21 05:14:34;;;;;;;;;;;;;;;6.78;76.75;99448.91;5115513;28;20381;-70
2021/04/21 05:17:16;;;;;;;;;;;;;;;6.93;76.92;99453.31;5115382;28;19973;-70
2021/04/21 05:20:09;;;;;;;;;;;;;;;7.02;76.67;99453.38;5115659;28;20297;-70
2021/04/21 05:22:58;;;;;;;;;;;;;;;7.14;76.38;99453.50;5115258;28;20361;-70
2021/04/21 05:25:46;;;;;;;;;;;;;;;7.22;76.85;99445.09;5108999;28;20404;-70
2021/04/21 05:28:28;;;;;;;;;;;;;;;7.25;76.51;99444.28;5081839;28;20383;-70
2021/04/21 05:31:14;;;;;;;;;;;;;;;7.27;76.16;99450.25;5115136;28;19927;-70
2021/04/21 05:33:56;;;;;;;;;;;;;;;7.34;75.97;99452.00;5115128;28;19923;-70
2021/04/21 05:36:51;;;;;;;;;;;;;;;7.49;76.25;99457.19;5114209;28;19946;-70
2021/04/21 05:39:29;;;;;;;;;;;;;;;7.67;76.07;99462.41;5114986;28;20022;-70
2021/04/21 05:42:07;;;;;;;;;;;;;;;7.83;75.75;99461.66;5115563;28;19969;-71
2021/04/21 05:44:56;;;;;;;;;;;;;;;8.00;75.91;99467.72;5114963;28;19923;-70
2021/04/21 05:47:34;;;;;;;;;;;;;;;8.15;75.37;99466.09;5115194;28;20012;-70
2021/04/21 05:50:20;;;;;;;;;;;;;;;8.34;74.86;99463.69;5114841;28;19923;-71
2021/04/21 05:53:03;;;;;;;;;;;;;;;8.46;75.32;99458.66;5114784;28;19990;-70
2021/04/21 05:55:43;;;;;;;;;;;;;;;8.61;74.36;99460.41;5112775;28;19924;-70
2021/04/21 05:58:31;;;;;;;;;;;;;;;8.79;74.02;99468.09;5114720;28;19924;-70
2021/04/21 06:01:10;;;;;;;;;;;;;;;8.95;73.83;99464.72;5114672;28;19963;-70
2021/04/21 06:03:40;;;;;;;;;;;;;;;9.07;74.11;99463.94;5114691;28;20468;-70
2021/04/21 06:06:08;;;;;;;;;;;;;;;9.23;73.45;99465.63;5114936;28;19978;-70
2021/04/21 06:08:36;;;;;;;;;;;;;;;9.29;72.91;99471.56;5114800;28;19955;-70
2021/04/21 06:11:15;;;;;;;;;;;;;;;9.41;73.18;99461.41;5114388;28;19959;-71
2021/04/21 06:13:43;;;;;;;;;;;;;;;9.57;72.43;99463.97;5114528;28;19955;-71
2021/04/21 06:16:11;;;;;;;;;;;;;;;9.67;72.35;99465.66;5114499;28;19967;-70
2021/04/21 06:18:40;;;;;;;;;;;;;;;9.83;71.32;99467.34;5114903;28;19931;-71
2021/04/21 06:21:15;;;;;;;;;;;;;;;9.92;71.54;99459.66;5114388;28;19923;-71
2021/04/21 06:23:43;;;;;;;;;;;;;;;9.99;70.86;99458.78;5114455;28;19969;-70
2021/04/21 06:26:17;;;;;;;;;;;;;;;10.05;70.15;99456.25;5114280;28;19963;-71
2021/04/21 06:28:57;;;;;;;;;;;;;;;10.24;70.20;99457.94;5114414;28;19954;-70
2021/04/21 06:31:31;;;;;;;;;;;;;;;10.40;69.75;99462.13;5114587;28;19947;-70
2021/04/21 06:33:59;;;;;;;;;;;;;;;10.56;69.04;99451.00;5114617;28;19924;-70
2021/04/21 06:36:31;;;;;;;;;;;;;;;10.64;68.62;99450.97;5114514;28;19924;-71
2021/04/21 06:38:59;;;;;;;;;;;;;;;10.74;68.51;99445.81;5114550;28;19924;-70
2021/04/21 06:41:28;;;;;;;;;;;;;;;10.88;68.21;99452.53;5114233;28;20018;-71
2021/04/21 06:43:57;;;;;;;;;;;;;;;10.96;68.47;99458.44;5114117;28;19924;-69
2021/04/21 06:46:25;;;;;;;;;;;;;;;10.97;67.75;99452.47;5096201;28;20036;-70
2021/04/21 06:48:53;;;;;;;;;;;;;;;10.94;67.42;99458.44;5117568;28;20343;-71
2021/04/21 06:51:22;;;;;;;;;;;;;;;10.98;67.51;99455.03;5118477;28;19924;-70
2021/04/21 06:53:52;;;;;;;;;;;;;;;11.03;67.40;99450.75;5118153;28;20026;-71
2021/04/21 06:56:29;;;;;;;;;;;;;;;11.11;67.82;99448.97;5118118;28;20010;-71
2021/04/21 06:58:57;;;;;;;;;;;;;;;11.12;67.20;99452.38;5118026;28;19924;-71
2021/04/21 07:01:26;;;;;;;;;;;;;;;11.11;67.04;99455.81;5118366;28;19930;-70
2021/04/21 07:03:54;;;;;;;;;;;;;;;11.14;67.39;99455.78;5118008;28;19924;-71
2021/04/21 07:06:22;;;;;;;;;;;;;;;11.15;67.08;99452.38;5117837;28;19924;-70
2021/04/21 07:08:51;;;;;;;;;;;;;;;11.30;67.15;99457.38;5117913;28;19924;-70
2021/04/21 07:11:21;;;;;;;;;;;;;;;11.36;67.02;99457.31;5117819;28;19969;-70
2021/04/21 07:13:50;;;;;;;;;;;;;;;11.39;66.67;99462.41;5117751;28;19924;-71
2021/04/21 07:16:27;;;;;;;;;;;;;;;11.49;66.66;99458.09;5118384;28;19924;-71
2021/04/21 07:18:56;;;;;;;;;;;;;;;11.53;66.75;99460.59;5117740;28;19924;-71
2021/04/21 07:21:25;;;;;;;;;;;;;;;11.63;66.44;99456.25;5117667;28;20368;-70
2021/04/21 07:23:54;;;;;;;;;;;;;;;11.74;65.63;99465.56;5117824;28;19930;-72
2021/04/21 07:26:27;;;;;;;;;;;;;;;11.82;65.27;99468.03;5117330;28;19969;-71
2021/04/21 07:28:56;;;;;;;;;;;;;;;11.90;64.85;99472.22;5117897;28;20408;-71
2021/04/21 07:31:25;;;;;;;;;;;;;;;11.93;64.56;99474.75;5118102;28;19924;-71
2021/04/21 07:34:02;;;;;;;;;;;;;;;12.04;64.28;99475.47;5117465;28;19951;-71
2021/04/21 07:36:30;;;;;;;;;;;;;;;12.17;63.89;99475.34;5117302;28;20343;-71
2021/04/21 07:39:08;;;;;;;;;;;;;;;12.30;63.61;99476.94;5116427;28;19928;-71
2021/04/21 07:41:37;;;;;;;;;;;;;;;12.38;63.23;99475.16;5117362;28;19927;-71
2021/04/21 07:44:06;;;;;;;;;;;;;;;12.52;62.89;99476.69;5117218;28;19931;-71
2021/04/21 07:46:34;;;;;;;;;;;;;;;12.79;62.02;99478.03;5117387;28;19924;-70
2021/04/21 07:49:06;;;;;;;;;;;;;;;13.01;62.04;99484.56;5117131;28;19946;-71
2021/04/21 07:51:39;;;;;;;;;;;;;;;13.14;61.83;99481.00;5117009;28;20448;-71
2021/04/21 07:54:08;;;;;;;;;;;;;;;13.25;61.68;99479.13;5117006;28;19931;-71
2021/04/21 07:56:36;;;;;;;;;;;;;;;13.38;61.74;99480.66;5117141;28;19967;-70
2021/04/21 07:59:15;;;;;;;;;;;;;;;13.46;61.51;99487.38;5115983;28;20354;-71
2021/04/21 08:01:44;;;;;;;;;;;;;;;13.69;61.45;99481.00;5116904;28;19947;-70
2021/04/21 08:04:15;;;;;;;;;;;;;;;13.95;61.49;99488.25;5116801;28;19973;-71
2021/04/21 08:06:50;;;;;;;;;;;;;;;14.01;60.71;99488.16;5117024;28;20385;-71
2021/04/21 08:09:22;;;;;;;;;;;;;;;14.12;60.82;99488.81;5116754;28;20354;-71
2021/04/21 08:12:00;;;;;;;;;;;;;;;14.16;60.34;99490.44;5116684;28;19969;-70
2021/04/21 08:14:40;;;;;;;;;;;;;;;14.21;60.87;99491.19;5116652;28;19927;-71
2021/04/21 08:17:10;;;;;;;;;;;;;;;14.33;60.46;99496.13;5116944;28;19927;-71
2021/04/21 08:19:39;;;;;;;;;;;;;;;14.40;60.38;99486.59;5116490;28;19928;-71
2021/04/21 08:22:07;;;;;;;;;;;;;;;14.43;59.73;99489.97;5116437;28;20286;-71
2021/04/21 08:24:40;;;;;;;;;;;;;;;14.56;60.00;99488.84;5116450;28;19924;-70
2021/04/21 08:27:08;;;;;;;;;;;;;;;14.68;59.40;99491.16;5116640;28;19934;-71
2021/04/21 08:29:36;;;;;;;;;;;;;;;14.76;59.14;99486.72;5116364;28;19930;-70
2021/04/21 08:32:05;;;;;;;;;;;;;;;14.86;58.45;99489.94;5116484;28;19931;-71
2021/04/21 08:34:33;;;;;;;;;;;;;;;14.94;58.17;99493.19;5116578;28;19977;-71
2021/04/21 08:37:02;;;;;;;;;;;;;;;15.10;58.12;99491.13;5116141;28;19927;-71
2021/04/21 08:39:30;;;;;;;;;;;;;;;15.28;58.31;99501.84;5116037;28;19927;-71
2021/04/21 08:41:59;;;;;;;;;;;;;;;15.32;59.06;99487.19;5116324;28;19934;-71
2021/04/21 08:44:29;;;;;;;;;;;;;;;15.27;58.60;99494.16;5115904;28;20300;-71
2021/04/21 08:46:59;;;;;;;;;;;;;;;15.27;58.60;99489.03;5115987;28;20270;-71
2021/04/21 08:49:29;;;;;;;;;;;;;;;15.28;58.84;99495.88;5116510;28;20018;-70
2021/04/21 08:51:59;;;;;;;;;;;;;;;15.36;59.50;99488.81;5115832;28;19993;-70
2021/04/21 08:54:30;;;;;;;;;;;;;;;15.57;60.06;99496.09;5097837;28;19959;-71
2021/04/21 08:56:58;;;;;;;;;;;;;;;15.66;59.32;99488.13;5115767;28;20373;-70
2021/04/21 08:59:26;;;;;;;;;;;;;;;15.76;59.70;99492.19;5115613;28;19924;-71
2021/04/21 09:01:54;;;;;;;;;;;;;;;15.76;58.99;99494.75;5115675;28;19923;-70
2021/04/21 09:04:22;;;;;;;;;;;;;;;15.92;59.41;99490.91;5115586;28;19924;-71
2021/04/21 09:06:49;;;;;;;;;;;;;;;15.94;58.92;99486.56;5115495;28;19923;-70
2021/04/21 09:09:18;;;;;;;;;;;;;;;16.00;58.10;99494.09;5115446;28;19923;-71
2021/04/21 09:11:46;;;;;;;;;;;;;;;16.05;57.38;99492.25;5115289;28;20015;-70
2021/04/21 09:14:14;;;;;;;;;;;;;;;16.07;57.32;99487.09;5115455;28;19951;-71
2021/04/21 09:16:42;;;;;;;;;;;;;;;16.13;57.79;99483.50;5115442;28;19923;-71
2021/04/21 09:19:12;;;;;;;;;;;;;;;16.14;57.44;99490.34;5115311;28;19931;-70
2021/04/21 09:21:40;;;;;;;;;;;;;;;16.04;57.23;99485.44;5115255;28;19924;-71
2021/04/21 09:24:12;;;;;;;;;;;;;;;15.98;55.72;99485.59;5115341;28;19927;-71
2021/04/21 09:26:40;;;;;;;;;;;;;;;15.95;56.42;99477.97;5115224;28;20386;-71
2021/04/21 09:29:08;;;;;;;;;;;;;;;16.23;56.59;99474.63;5115160;28;20377;-70
2021/04/21 09:31:36;;;;;;;;;;;;;;;16.51;56.61;99475.56;5115079;28;19924;-70
2021/04/21 09:34:11;;;;;;;;;;;;;;;16.80;56.28;99473.03;5115168;28;19930;-71
2021/04/21 09:36:41;;;;;;;;;;;;;;;17.01;56.22;99472.41;5115083;28;19923;-70
2021/04/21 09:39:12;;;;;;;;;;;;;;;17.11;54.98;99468.66;5114864;28;19950;-71
2021/04/21 09:41:41;;;;;;;;;;;;;;;17.15;53.58;99465.13;5114940;28;20343;-71
2021/04/21 09:44:16;;;;;;;;;;;;;;;17.11;53.28;99458.34;5114855;28;19927;-70
2021/04/21 09:46:44;;;;;;;;;;;;;;;16.94;52.82;99462.34;5114932;28;19924;-70
2021/04/21 09:49:22;;;;;;;;;;;;;;;16.97;53.40;99460.50;5114801;28;19928;-70
2021/04/21 09:51:50;;;;;;;;;;;;;;;17.05;53.34;99458.53;5114804;28;19967;-70
2021/04/21 09:54:27;;;;;;;;;;;;;;;17.16;54.17;99455.63;5115105;28;19928;-70
2021/04/21 09:57:15;;;;;;;;;;;;;;;17.07;52.72;99464.50;5114686;28;20027;-70
2021/04/21 09:59:57;;;;;;;;;;;;;;;17.13;53.60;99460.91;5114526;28;19955;-70
2021/04/21 10:02:30;;;;;;;;;;;;;;;17.17;52.96;99455.59;5115059;28;19993;-70
2021/04/21 10:04:58;;;;;;;;;;;;;;;17.27;52.41;99449.25;5114603;28;20384;-69
2021/04/21 10:07:25;;;;;;;;;;;;;;;17.44;52.20;99451.31;5114580;28;19924;-70
2021/04/21 10:09:57;;;;;;;;;;;;;;;17.59;51.85;99450.00;5114468;28;19966;-70
2021/04/21 10:12:29;;;;;;;;;;;;;;;17.69;50.77;99441.88;5114871;28;20423;-70
2021/04/21 10:15:06;;;;;;;;;;;;;;;17.66;51.32;99438.56;5114473;28;19930;-71
2021/04/21 10:17:35;;;;;;;;;;;;;;;17.78;51.48;99444.16;5114441;28;20018;-70
2021/04/21 10:20:04;;;;;;;;;;;;;;;17.79;50.52;99432.09;5114450;28;19924;-70
2021/04/21 10:22:32;;;;;;;;;;;;;;;17.93;50.58;99429.88;5113777;28;20362;-71
2021/04/21 10:25:00;;;;;;;;;;;;;;;17.99;50.42;99434.84;5114659;28;20014;-70
2021/04/21 10:27:30;;;;;;;;;;;;;;;18.03;51.00;99431.25;5114231;28;19963;-70
2021/04/21 10:29:58;;;;;;;;;;;;;;;18.05;49.70;99426.88;5114557;28;20022;-70
2021/04/21 10:32:26;;;;;;;;;;;;;;;18.10;49.68;99427.56;5114609;28;19976;-70
2021/04/21 10:34:55;;;;;;;;;;;;;;;18.18;48.46;99410.06;5114245;28;19966;-70
2021/04/21 10:37:23;;;;;;;;;;;;;;;18.15;48.16;99415.31;5114310;28;19969;-71
2021/04/21 10:39:52;;;;;;;;;;;;;;;18.24;48.75;99411.56;5114180;28;19923;-71
2021/04/21 10:42:20;;;;;;;;;;;;;;;18.21;48.57;99414.25;5114504;28;20311;-71
2021/04/21 10:44:50;;;;;;;;;;;;;;;18.21;48.05;99412.50;5114154;28;19924;-71
2021/04/21 10:47:18;;;;;;;;;;;;;;;18.24;48.46;99407.22;5114209;28;19928;-71
2021/04/21 10:49:58;;;;;;;;;;;;;;;18.22;47.51;99405.59;5114201;28;20297;-71
2021/04/21 10:52:34;;;;;;;;;;;;;;;18.36;47.93;99399.03;5114113;28;20331;-71
2021/04/21 10:55:03;;;;;;;;;;;;;;;18.45;47.35;99403.84;5114635;28;19924;-71
2021/04/21 10:57:32;;;;;;;;;;;;;;;18.49;45.68;99392.56;5096141;28;19936;-70
2021/04/21 11:00:09;;;;;;;;;;;;;;;18.56;44.81;99396.59;5092439;28;20340;-70
2021/04/21 11:02:48;;;;;;;;;;;;;;;18.67;44.83;99383.25;5093767;28;19924;-71
2021/04/21 11:05:16;;;;;;;;;;;;;;;18.85;45.00;99392.06;5093629;28;19924;-70
2021/04/21 11:07:45;;;;;;;;;;;;;;;18.99;45.57;99388.03;5094507;28;19924;-71
2021/04/21 11:10:27;;;;;;;;;;;;;;;19.07;44.77;99377.38;5094561;28;19957;-71
2021/04/21 11:12:55;;;;;;;;;;;;;;;19.29;43.64;99378.19;5093362;28;20366;-70
2021/04/21 11:15:34;;;;;;;;;;;;;;;19.29;41.97;99378.19;5093815;28;20285;-70
2021/04/21 11:18:13;;;;;;;;;;;;;;;19.34;41.91;99376.25;5093528;28;19947;-69
2021/04/21 11:20:50;;;;;;;;;;;;;;;19.50;42.45;99369.56;5093569;28;19931;-70
2021/04/21 11:23:29;;;;;;;;;;;;;;;19.55;42.21;99380.59;5093541;28;19935;-71
2021/04/21 11:26:12;;;;;;;;;;;;;;;19.49;41.63;99369.63;5093978;28;19931;-71
2021/04/21 11:28:50;;;;;;;;;;;;;;;19.19;41.50;99366.53;5093301;28;19934;-71
2021/04/21 11:31:19;;;;;;;;;;;;;;;19.06;42.34;99367.91;5093564;28;19950;-71
2021/04/21 11:33:51;;;;;;;;;;;;;;;19.11;42.81;99358.22;5093292;28;20336;-71
2021/04/21 11:36:29;;;;;;;;;;;;;;;19.41;43.15;99362.19;5097357;28;19931;-70
2021/04/21 11:38:57;;;;;;;;;;;;;;;19.57;43.02;99365.81;5096946;28;19924;-70
2021/04/21 11:41:26;;;;;;;;;;;;;;;19.49;43.15;99362.69;5096955;28;20392;-70
2021/04/21 11:43:54;;;;;;;;;;;;;;;19.64;43.44;99359.47;5097133;28;19970;-71
2021/04/21 11:46:37;;;;;;;;;;;;;;;19.72;43.15;99359.16;5096842;28;19931;-70
2021/04/21 11:49:06;;;;;;;;;;;;;;;19.43;42.26;99354.34;5095553;28;19930;-70
2021/04/21 11:51:45;;;;;;;;;;;;;;;19.14;42.14;99360.69;5096653;28;20364;-70
2021/04/21 11:54:13;;;;;;;;;;;;;;;19.12;42.89;99354.75;5096934;28;19956;-71
2021/04/21 11:56:41;;;;;;;;;;;;;;;19.46;43.47;99349.88;5096602;28;19971;-70
2021/04/21 11:59:09;;;;;;;;;;;;;;;19.46;43.06;99354.25;5100674;28;19931;-71
2021/04/21 12:01:37;;;;;;;;;;;;;;;19.05;42.18;99342.97;5116940;28;19924;-70
2021/04/21 12:04:10;;;;;;;;;;;;;;;18.85;43.01;99340.31;5116750;28;20031;-71
2021/04/21 12:06:39;;;;;;;;;;;;;;;18.89;43.68;99341.88;5116876;28;19924;-70
2021/04/21 12:09:07;;;;;;;;;;;;;;;18.91;43.74;99346.09;5116875;28;19923;-70
2021/04/21 12:11:35;;;;;;;;;;;;;;;18.89;43.06;99344.47;5116996;28;19924;-70
2021/04/21 12:14:03;;;;;;;;;;;;;;;18.87;42.21;99346.28;5116539;28;20003;-71
2021/04/21 12:16:36;;;;;;;;;;;;;;;18.95;42.68;99339.06;5116606;28;19924;-71
2021/04/21 12:19:04;;;;;;;;;;;;;;;19.14;42.48;99345.19;5116647;28;19924;-70
2021/04/21 12:21:35;;;;;;;;;;;;;;;19.25;42.06;99338.66;5116729;28;20355;-70
2021/04/21 12:24:04;;;;;;;;;;;;;;;19.51;41.72;99332.41;5116490;28;19923;-70
2021/04/21 12:26:34;;;;;;;;;;;;;;;19.69;41.55;99330.78;5098395;28;19923;-71
2021/04/21 12:29:03;;;;;;;;;;;;;;;19.96;41.59;99327.00;5116283;28;20087;-70
2021/04/21 12:31:31;;;;;;;;;;;;;;;20.20;41.55;99328.50;5116326;28;20301;-71
2021/04/21 12:34:00;;;;;;;;;;;;;;;20.11;41.00;99322.88;5116276;28;19928;-69
2021/04/21 12:36:29;;;;;;;;;;;;;;;20.06;40.45;99321.31;5116242;28;19947;-70
2021/04/21 12:39:02;;;;;;;;;;;;;;;20.09;41.00;99320.34;5116174;28;20285;-71
2021/04/21 12:41:30;;;;;;;;;;;;;;;20.08;40.23;99317.84;5116181;28;20022;-71
2021/04/21 12:44:12;;;;;;;;;;;;;;;20.27;40.83;99313.53;5115893;28;19923;-70
2021/04/21 12:46:40;;;;;;;;;;;;;;;20.29;40.24;99311.69;5115746;28;19930;-71
2021/04/21 12:49:28;;;;;;;;;;;;;;;20.48;40.88;99312.53;5117691;28;19924;-71
2021/04/21 12:51:59;;;;;;;;;;;;;;;20.67;40.80;99309.00;5115833;28;19924;-71
2021/04/21 12:54:30;;;;;;;;;;;;;;;20.74;41.24;99317.31;5116322;28;19969;-71
2021/04/21 12:56:59;;;;;;;;;;;;;;;20.52;40.52;99314.91;5115817;28;19923;-70
2021/04/21 12:59:27;;;;;;;;;;;;;;;20.31;40.55;99315.91;5115433;28;19931;-71
2021/04/21 13:01:55;;;;;;;;;;;;;;;19.92;41.52;99313.31;5116247;28;19924;-71
2021/04/21 13:04:34;;;;;;;;;;;;;;;19.56;41.83;99306.31;5116195;28;19923;-70
2021/04/21 13:07:12;;;;;;;;;;;;;;;19.19;42.47;99304.44;5115777;28;20312;-70
2021/04/21 13:09:39;;;;;;;;;;;;;;;19.03;43.70;99313.72;5115469;28;19949;-70
2021/04/21 13:12:11;;;;;;;;;;;;;;;18.88;44.03;99301.41;5115530;28;19931;-71
2021/04/21 13:14:41;;;;;;;;;;;;;;;18.74;44.15;99302.81;5115281;28;19924;-70
2021/04/21 13:17:09;;;;;;;;;;;;;;;18.51;44.04;99315.78;5098196;28;19977;-70